createdAt,value
2019-04-21T00:45:04.899Z,4.40
2019-04-21T00:47:39.064Z,4.47
2019-04-21T00:50:12.781Z,4.60
2019-04-21T00:55:32.471Z,4.30
2019-04-21T00:58:06.597Z,4.83
2019-04-21T01:00:32.471Z,4.77
2019-04-21T01:03:09.376Z,4.40
2019-04-21T01:05:42.707Z,4.97
2019-04-21T01:08:10.010Z,5.03
2019-04-21T01:10:35.847Z,4.87
2019-04-21T01:13:18.683Z,4.23
2019-04-21T01:15:51.571Z,4.97
2019-04-21T01:18:20.766Z,4.47
2019-04-21T01:20:30.760Z,4.70
2019-04-21T01:23:02.310Z,4.77
2019-04-21T01:25:41.161Z,4.77
2019-04-21T01:28:27.171Z,4.87
2019-04-21T01:30:57.345Z,4.67
2019-04-21T01:33:34.935Z,4.83
2019-04-21T01:36:00.843Z,4.73
2019-04-21T01:38:40.314Z,4.97
2019-04-21T01:41:18.031Z,5.10
2019-04-21T01:43:39.455Z,4.90
2019-04-21T01:46:11.218Z,5.23
2019-04-21T01:48:39.145Z,4.80
2019-04-21T01:51:15.657Z,4.90
2019-04-21T01:54:14.760Z,4.43
2019-04-21T01:56:46.571Z,4.97
2019-04-21T01:59:07.372Z,4.90
2019-04-21T02:01:52.728Z,4.90
2019-04-21T02:04:33.098Z,5.10
2019-04-21T02:06:59.825Z,4.63
2019-04-21T02:09:30.898Z,5.13
2019-04-21T02:12:10.096Z,4.97
2019-04-21T02:14:45.649Z,5.27
2019-04-21T02:17:14.756Z,5.30
2019-04-21T02:19:44.578Z,5.10
2019-04-21T02:22:20.826Z,4.90
2019-04-21T02:24:56.646Z,5.37
2019-04-21T02:27:23.798Z,5.53
2019-04-21T02:30:02.804Z,5.27
2019-04-21T02:32:43.826Z,5.40
2019-04-21T02:38:01.270Z,5.50
2019-04-21T02:42:59.867Z,5.67
2019-04-21T02:45:23.596Z,5.40
2019-04-21T02:50:37.764Z,5.53
2019-04-21T03:00:55.492Z,6.00
2019-04-21T03:03:49.209Z,5.60
2019-04-21T03:06:24.796Z,5.23
2019-04-21T03:08:50.104Z,5.80
2019-04-21T03:13:47.114Z,5.77
2019-04-21T03:16:26.460Z,5.47
2019-04-21T03:18:54.261Z,5.53
2019-04-21T03:21:22.233Z,5.40
2019-04-21T03:23:57.978Z,5.43
2019-04-21T03:26:42.756Z,5.87
2019-04-21T03:29:03.646Z,5.90
2019-04-21T03:37:04.926Z,5.93
2019-04-21T03:39:04.685Z,5.83
2019-04-21T03:41:50.569Z,5.70
2019-04-21T03:44:14.434Z,5.57
2019-04-21T03:46:51.016Z,6.30
2019-04-21T03:51:57.313Z,6.63
2019-04-21T03:54:30.859Z,6.60
2019-04-21T03:57:11.035Z,6.33
2019-04-21T03:59:24.633Z,6.43
2019-04-21T04:02:24.944Z,6.67
2019-04-21T04:05:05.715Z,6.27
2019-04-21T04:07:44.256Z,6.20
2019-04-21T04:10:08.226Z,8.17
2019-04-21T04:12:44.332Z,6.23
2019-04-21T04:15:12.054Z,6.20
2019-04-21T04:17:40.786Z,6.83
2019-04-21T04:22:56.258Z,6.47
2019-04-21T04:25:33.518Z,6.60
2019-04-21T04:30:31.715Z,6.10
2019-04-21T04:32:57.299Z,6.50
2019-04-21T04:35:48.989Z,6.83
2019-04-21T04:38:13.437Z,7.10
2019-04-21T04:40:55.907Z,6.37
2019-04-21T04:45:56.508Z,6.60
2019-04-21T04:48:49.107Z,6.20
2019-04-21T04:51:07.365Z,7.00
2019-04-21T04:53:40.140Z,6.87
2019-04-21T04:56:03.686Z,7.10
2019-04-21T04:59:19.752Z,6.70
2019-04-21T05:01:21.482Z,10.70
2019-04-21T05:03:52.448Z,8.87
2019-04-21T05:09:05.805Z,6.77
2019-04-21T05:11:39.871Z,6.80
2019-04-21T05:16:43.161Z,7.67
2019-04-21T05:19:10.612Z,6.93
2019-04-21T05:23:56.966Z,6.97
2019-04-21T05:26:27.465Z,7.37
2019-04-21T05:29:00.653Z,8.03
2019-04-21T05:31:56.765Z,7.37
2019-04-21T05:34:21.971Z,7.83
2019-04-21T05:37:01.022Z,7.80
2019-04-21T05:39:51.034Z,7.37
2019-04-21T05:42:17.032Z,7.27
2019-04-21T05:45:01.670Z,7.67
2019-04-21T05:47:35.318Z,7.27
2019-04-21T05:50:04.665Z,7.03
2019-04-21T05:52:35.367Z,7.23
2019-04-21T05:55:18.024Z,7.40
2019-04-21T05:57:53.288Z,7.80
2019-04-21T06:00:23.634Z,7.50
2019-04-21T06:03:04.042Z,7.40
2019-04-21T06:05:37.807Z,7.77
2019-04-21T06:08:00.400Z,7.53
2019-04-21T06:10:43.613Z,7.63
2019-04-21T06:13:13.463Z,8.03
2019-04-21T06:15:54.287Z,7.50
2019-04-21T06:18:22.389Z,7.70
2019-04-21T06:20:46.663Z,8.07
2019-04-21T06:23:27.326Z,7.60
2019-04-21T06:26:16.156Z,8.07
2019-04-21T06:28:33.688Z,8.30
2019-04-21T06:31:18.159Z,7.77
2019-04-21T06:33:35.700Z,8.20
2019-04-21T06:36:31.851Z,8.67
2019-04-21T06:41:29.756Z,8.30
2019-04-21T06:46:33.419Z,7.60
2019-04-21T06:48:59.958Z,8.10
2019-04-21T06:54:03.533Z,8.20
2019-04-21T06:56:42.429Z,8.20
2019-04-21T06:59:05.577Z,8.53
2019-04-21T07:01:43.917Z,8.37
2019-04-21T07:07:00.765Z,8.33
2019-04-21T07:09:20.407Z,9.10
2019-04-21T07:11:52.848Z,8.50
2019-04-21T07:16:56.380Z,8.57
2019-04-21T07:21:55.848Z,8.70
2019-04-21T07:24:31.939Z,8.33
2019-04-21T07:27:24.253Z,9.50
2019-04-21T07:29:39.493Z,9.40
2019-04-21T07:32:12.132Z,9.70
2019-04-21T07:34:37.980Z,9.67
2019-04-21T07:37:12.692Z,9.70
2019-04-21T07:39:45.057Z,9.13
2019-04-21T07:42:13.740Z,9.60
2019-04-21T07:44:46.046Z,9.97
2019-04-21T07:47:28.481Z,9.40
2019-04-21T07:50:07.574Z,9.93
2019-04-21T07:52:49.372Z,10.20
2019-04-21T07:57:47.883Z,10.13
2019-04-21T08:02:53.967Z,10.17
2019-04-21T08:05:31.402Z,9.57
2019-04-21T08:08:13.939Z,9.43
2019-04-21T08:10:36.307Z,9.70
2019-04-21T08:13:10.028Z,8.37
2019-04-21T08:15:39.938Z,9.17
2019-04-21T08:18:17.759Z,9.23
2019-04-21T08:20:49.170Z,9.30
2019-04-21T08:23:25.593Z,9.23
2019-04-21T08:25:58.934Z,9.17
2019-04-21T08:28:27.655Z,9.03
2019-04-21T08:31:01.286Z,8.50
2019-04-21T08:33:38.687Z,8.60
2019-04-21T08:36:17.695Z,8.10
2019-04-21T08:38:45.181Z,8.50
2019-04-21T08:41:08.217Z,8.53
2019-04-21T08:46:18.988Z,8.50
2019-04-21T08:48:49.643Z,8.10
2019-04-21T08:51:27.554Z,8.17
2019-04-21T08:53:55.116Z,7.87
2019-04-21T08:56:34.557Z,7.93
2019-04-21T08:59:11.127Z,7.23
2019-04-21T09:01:58.665Z,7.40
2019-04-21T09:04:28.769Z,7.27
2019-04-21T09:07:19.614Z,6.50
2019-04-21T09:09:35.340Z,7.00
2019-04-21T09:12:07.107Z,7.97
2019-04-21T09:14:39.562Z,7.43
2019-04-21T09:17:07.574Z,7.33
2019-04-21T09:19:53.414Z,6.63
2019-04-21T09:22:18.246Z,7.33
2019-04-21T09:24:51.851Z,6.83
2019-04-21T09:27:20.752Z,6.37
2019-04-21T09:29:43.981Z,6.23
2019-04-21T09:32:13.600Z,6.23
2019-04-21T09:34:44.193Z,6.63
2019-04-21T09:37:26.891Z,6.50
2019-04-21T09:39:50.275Z,5.80
2019-04-21T09:42:20.156Z,5.20
2019-04-21T09:44:55.601Z,5.97
2019-04-21T09:47:33.609Z,6.17
2019-04-21T09:49:58.449Z,6.10
2019-04-21T09:52:38.819Z,6.03
2019-04-21T09:55:10.034Z,5.50
2019-04-21T09:57:43.329Z,5.70
2019-04-21T10:00:17.209Z,5.50
2019-04-21T10:02:54.628Z,6.00
2019-04-21T10:05:14.534Z,5.20
2019-04-21T10:07:46.494Z,5.50
2019-04-21T10:10:17.711Z,6.37
2019-04-21T10:12:48.168Z,6.10
2019-04-21T10:15:21.942Z,6.40
2019-04-21T10:17:54.043Z,7.13
2019-04-21T10:20:26.362Z,5.27
2019-04-21T10:22:57.369Z,8.47
2019-04-21T10:25:28.423Z,6.13
2019-04-21T10:27:59.307Z,6.10
2019-04-21T10:30:30.751Z,5.60
2019-04-21T10:33:01.538Z,5.63
2019-04-21T10:35:32.965Z,5.67
2019-04-21T10:38:17.979Z,6.10
2019-04-21T10:40:37.322Z,5.27
2019-04-21T10:43:10.754Z,5.20
2019-04-21T10:45:41.056Z,5.33
2019-04-21T10:48:12.804Z,4.80
2019-04-21T10:50:43.568Z,5.20
2019-04-21T10:53:16.710Z,4.80
2019-04-21T10:56:00.507Z,4.50
2019-04-21T10:58:28.484Z,4.43
2019-04-21T11:01:04.300Z,4.50
2019-04-21T11:03:36.932Z,5.17
2019-04-21T11:06:10.645Z,5.00
2019-04-21T11:08:45.759Z,4.90
2019-04-21T11:11:14.494Z,4.80
2019-04-21T11:13:46.286Z,5.05
2019-04-21T11:16:17.376Z,4.17
2019-04-21T11:18:48.429Z,4.67
2019-04-21T11:21:20.755Z,5.27
2019-04-21T11:23:52.218Z,5.30
2019-04-21T11:26:24.328Z,5.00
2019-04-21T11:28:55.002Z,5.77
2019-04-21T11:31:27.194Z,5.35
2019-04-21T11:33:58.280Z,5.83
2019-04-21T11:36:29.199Z,5.00
2019-04-21T11:39:12.386Z,7.58
2019-04-21T11:41:34.352Z,6.47
2019-04-21T11:44:05.165Z,8.20
2019-04-21T11:46:36.400Z,5.27
2019-04-21T11:49:08.412Z,4.83
2019-04-21T11:51:38.954Z,4.87
2019-04-21T11:54:10.830Z,4.90
2019-04-21T11:56:43.151Z,4.83
2019-04-21T11:59:15.412Z,5.07
2019-04-21T12:01:47.613Z,4.77
2019-04-21T12:04:18.513Z,4.83
2019-04-21T12:06:50.882Z,4.87
2019-04-21T12:09:23.030Z,4.80
2019-04-21T12:11:53.996Z,4.70
2019-04-21T12:14:25.883Z,4.60
2019-04-21T12:16:57.205Z,4.87
2019-04-21T12:19:28.162Z,4.33
2019-04-21T12:22:09.734Z,4.28
2019-04-21T12:24:34.611Z,4.60
2019-04-21T12:27:05.770Z,4.78
2019-04-21T12:29:37.817Z,4.80
2019-04-21T12:32:26.786Z,4.47
2019-04-21T12:34:57.843Z,4.70
2019-04-21T12:37:28.961Z,4.37
2019-04-21T12:40:00.812Z,4.93
2019-04-21T12:42:32.415Z,4.62
2019-04-21T12:45:03.632Z,4.50
2019-04-21T12:47:34.362Z,4.97
2019-04-21T12:50:07.043Z,4.95
2019-04-21T12:52:37.942Z,4.20
2019-04-21T12:55:09.811Z,4.57
2019-04-21T12:57:41.531Z,4.80
2019-04-21T13:00:15.326Z,10.23
2019-04-21T13:02:46.112Z,5.20
2019-04-21T13:05:17.815Z,4.30
2019-04-21T13:07:49.191Z,4.83
2019-04-21T13:10:26.415Z,5.10
2019-04-21T13:12:57.502Z,5.17
2019-04-21T13:15:29.348Z,4.95
2019-04-21T13:18:00.543Z,4.50
2019-04-21T13:20:31.205Z,4.80
2019-04-21T13:23:02.176Z,4.33
2019-04-21T13:25:33.899Z,4.30
2019-04-21T13:28:05.163Z,4.80
2019-04-21T13:30:36.276Z,5.00
2019-04-21T13:33:07.249Z,4.63
2019-04-21T13:35:39.143Z,4.75
2019-04-21T13:38:19.884Z,4.15
2019-04-21T13:41:15.102Z,4.20
2019-04-21T13:43:33.042Z,4.67
2019-04-21T13:46:04.102Z,4.75
2019-04-21T13:48:34.821Z,4.53
2019-04-21T13:51:07.051Z,4.63
2019-04-21T13:53:38.024Z,4.25
2019-04-21T13:56:08.969Z,4.78
2019-04-21T13:58:42.107Z,4.42
2019-04-21T14:01:13.807Z,4.62
2019-04-21T14:03:44.937Z,4.45
2019-04-21T14:06:16.247Z,4.50
2019-04-21T14:08:48.659Z,4.35
2019-04-21T14:11:19.789Z,4.47
2019-04-21T14:13:52.250Z,4.40
2019-04-21T14:16:24.364Z,4.20
2019-04-21T14:18:55.202Z,4.28
2019-04-21T14:21:27.231Z,4.80
2019-04-21T14:23:59.596Z,5.78
2019-04-21T14:26:32.223Z,4.92
2019-04-21T14:29:03.610Z,4.28
2019-04-21T14:31:34.708Z,4.08
2019-04-21T14:34:05.957Z,4.15
2019-04-21T14:36:37.019Z,4.35
2019-04-21T14:39:12.404Z,4.35
2019-04-21T14:41:44.258Z,4.80
2019-04-21T14:44:15.325Z,4.50
2019-04-21T14:47:03.118Z,4.80
2019-04-21T14:49:35.326Z,3.72
2019-04-21T14:52:14.976Z,4.12
2019-04-21T14:54:54.303Z,3.58
2019-04-21T14:57:25.193Z,3.80
2019-04-21T14:59:57.329Z,3.87
2019-04-21T15:02:29.779Z,3.60
2019-04-21T15:05:02.092Z,3.60
2019-04-21T15:07:33.124Z,3.50
2019-04-21T15:10:15.152Z,3.90
2019-04-21T15:12:41.550Z,3.60
2019-04-21T15:15:13.941Z,3.65
2019-04-21T15:17:46.189Z,3.37
2019-04-21T15:20:18.178Z,3.40
2019-04-21T15:22:52.429Z,4.23
2019-04-21T15:25:23.804Z,3.30
2019-04-21T15:27:54.963Z,3.55
2019-04-21T15:30:26.860Z,3.00
2019-04-21T15:32:58.121Z,3.33
2019-04-21T15:35:29.307Z,3.33
2019-04-21T15:37:59.972Z,3.08
2019-04-21T15:40:40.420Z,3.73
2019-04-21T15:43:04.397Z,3.27
2019-04-21T15:45:35.379Z,3.33
2019-04-21T15:48:07.796Z,3.40
2019-04-21T15:50:39.700Z,3.20
2019-04-21T15:53:15.975Z,3.23
2019-04-21T15:55:48.920Z,3.30
2019-04-21T15:58:22.782Z,3.60
2019-04-21T16:01:10.282Z,4.08
2019-04-21T16:03:42.801Z,3.47
2019-04-21T16:06:13.922Z,3.17
2019-04-21T16:08:47.630Z,3.00
2019-04-21T16:11:17.642Z,3.27
2019-04-21T16:13:49.560Z,3.33
2019-04-21T16:16:24.608Z,3.30
2019-04-21T16:18:54.311Z,2.92
2019-04-21T16:21:26.232Z,3.90
2019-04-21T16:23:58.209Z,4.40
2019-04-21T16:26:28.936Z,3.77
2019-04-21T16:28:59.886Z,3.20
2019-04-21T16:31:32.082Z,3.17
2019-04-21T16:34:03.408Z,3.00
2019-04-21T16:36:35.834Z,3.60
2019-04-21T16:39:07.806Z,3.40
2019-04-21T16:41:38.674Z,3.58
2019-04-21T16:44:09.507Z,3.70
2019-04-21T16:46:41.322Z,3.73
2019-04-21T16:49:13.650Z,3.90
2019-04-21T16:51:46.439Z,3.57
2019-04-21T16:54:24.036Z,4.20
2019-04-21T16:56:59.822Z,5.00
2019-04-21T16:59:32.752Z,4.57
2019-04-21T17:02:04.821Z,3.90
2019-04-21T17:04:36.289Z,3.80
2019-04-21T17:07:07.562Z,3.80
2019-04-21T17:09:38.937Z,3.70
2019-04-21T17:12:13.999Z,3.90
2019-04-21T17:14:57.189Z,3.62
2019-04-21T17:17:38.530Z,4.10
2019-04-21T17:19:51.147Z,4.50
2019-04-21T17:22:21.779Z,4.20
2019-04-21T17:24:52.918Z,4.57
2019-04-21T17:27:25.010Z,5.30
2019-04-21T17:29:56.775Z,4.30
2019-04-21T17:32:34.388Z,4.15
2019-04-21T17:35:01.947Z,4.00
2019-04-21T17:37:36.234Z,4.03
2019-04-21T17:40:09.099Z,4.17
2019-04-21T17:42:47.494Z,4.30
2019-04-21T17:45:13.184Z,7.10
2019-04-21T17:47:50.712Z,3.60
2019-04-21T17:50:23.514Z,3.73
2019-04-21T17:53:07.196Z,4.40
2019-04-21T17:55:40.179Z,4.30
2019-04-21T17:58:22.048Z,4.40
2019-04-21T18:01:12.871Z,4.80
2019-04-21T18:03:52.500Z,5.00
2019-04-21T18:06:10.296Z,5.10
2019-04-21T18:08:46.467Z,4.97
2019-04-21T18:11:10.188Z,5.10
2019-04-21T18:13:34.737Z,5.63
2019-04-21T18:16:18.895Z,4.93
2019-04-21T18:18:39.103Z,4.90
2019-04-21T18:21:14.829Z,5.10
2019-04-21T18:24:00.138Z,5.13
2019-04-21T18:26:33.640Z,5.00
2019-04-21T18:28:55.299Z,5.13
2019-04-21T18:31:26.945Z,5.80
2019-04-21T18:34:06.120Z,5.77
2019-04-21T18:36:43.280Z,6.03
2019-04-21T18:39:34.010Z,5.27
2019-04-21T18:42:09.427Z,5.67
2019-04-21T18:45:11.066Z,5.53
2019-04-21T18:47:27.580Z,5.27
2019-04-21T18:49:44.089Z,5.70
2019-04-21T18:52:27.110Z,5.50
2019-04-21T18:55:05.385Z,5.70
2019-04-21T18:57:33.099Z,6.80
2019-04-21T18:59:57.233Z,5.87
2019-04-21T19:02:38.446Z,5.80
2019-04-21T19:05:07.860Z,7.63
2019-04-21T19:08:00.559Z,6.30
2019-04-21T19:15:27.843Z,5.60
2019-04-21T19:20:43.342Z,6.13
2019-04-21T19:23:10.127Z,6.07
2019-04-21T19:25:47.311Z,6.20
2019-04-21T19:28:19.505Z,7.10
2019-04-21T19:31:09.192Z,7.80
2019-04-21T19:33:22.067Z,6.30
2019-04-21T19:35:41.528Z,7.83
2019-04-21T19:38:15.656Z,7.60
2019-04-21T19:40:56.530Z,7.30
2019-04-21T19:43:44.220Z,6.60
2019-04-21T19:46:09.612Z,7.13
2019-04-21T19:48:52.449Z,7.27
2019-04-21T19:51:10.809Z,6.80
2019-04-21T19:53:41.699Z,6.70
2019-04-21T19:56:02.131Z,7.40
2019-04-21T19:58:38.445Z,7.07
2019-04-21T20:01:09.703Z,7.33
2019-04-21T20:03:43.164Z,7.23
2019-04-21T20:06:28.675Z,7.77
2019-04-21T20:09:12.199Z,7.23
2019-04-21T20:11:38.796Z,6.90
2019-04-21T20:14:44.953Z,7.07
2019-04-21T20:16:44.037Z,6.83
2019-04-21T20:19:06.853Z,7.07
2019-04-21T20:21:35.083Z,7.13
2019-04-21T20:24:11.270Z,7.60
2019-04-21T20:26:42.493Z,8.50
2019-04-21T20:29:27.696Z,8.70
2019-04-21T20:31:54.952Z,9.13
2019-04-21T20:34:38.505Z,9.07
2019-04-21T20:37:12.706Z,8.80
2019-04-21T20:39:25.406Z,9.30
2019-04-21T20:42:11.147Z,8.43
2019-04-21T20:44:48.366Z,9.23
2019-04-21T20:47:12.629Z,8.37
2019-04-21T20:49:41.513Z,8.37
2019-04-21T20:52:30.075Z,7.80
2019-04-21T20:54:56.474Z,7.23
2019-04-21T20:57:26.391Z,7.83
2019-04-21T21:00:02.890Z,7.37
2019-04-21T21:02:36.286Z,7.03
2019-04-21T21:04:56.898Z,7.03
2019-04-21T21:07:55.972Z,7.00
2019-04-21T21:10:14.098Z,7.17
2019-04-21T21:12:51.264Z,7.00
2019-04-21T21:15:10.973Z,7.10
2019-04-21T21:17:53.734Z,6.87
2019-04-21T21:20:32.439Z,6.73
2019-04-21T21:22:56.149Z,7.10
2019-04-21T21:25:41.918Z,7.00
2019-04-21T21:27:56.871Z,6.73
2019-04-21T21:30:33.872Z,6.40
2019-04-21T21:33:10.788Z,6.53
2019-04-21T21:35:35.975Z,6.63
2019-04-21T21:38:13.557Z,6.23
2019-04-21T21:40:45.440Z,6.17
2019-04-21T21:43:10.722Z,6.03
2019-04-21T21:45:42.581Z,6.27
2019-04-21T21:48:21.922Z,6.30
2019-04-21T21:50:50.390Z,5.80
2019-04-21T21:53:16.378Z,5.70
2019-04-21T21:55:44.777Z,5.60
2019-04-21T21:58:19.379Z,4.97
2019-04-21T22:00:56.660Z,5.63
2019-04-21T22:03:28.282Z,5.70
2019-04-21T22:06:02.139Z,5.53
2019-04-21T22:08:28.306Z,5.30
2019-04-21T22:10:59.421Z,5.27
2019-04-21T22:13:42.174Z,5.30
2019-04-21T22:16:08.458Z,5.00
2019-04-21T22:18:58.252Z,4.73
2019-04-21T22:21:18.863Z,4.90
2019-04-21T22:23:51.608Z,4.70
2019-04-21T22:26:17.229Z,4.93
2019-04-21T22:28:47.695Z,4.90
2019-04-21T22:31:24.567Z,4.70
2019-04-21T22:33:55.449Z,4.57
2019-04-21T22:36:35.335Z,4.70
2019-04-21T22:39:13.331Z,4.47
2019-04-21T22:41:34.650Z,4.70
2019-04-21T22:44:02.478Z,4.70
2019-04-21T22:46:33.954Z,4.17
2019-04-21T22:49:08.993Z,4.37
2019-04-21T22:51:42.674Z,4.37
2019-04-21T22:54:12.829Z,3.90
2019-04-21T22:56:53.020Z,4.53
2019-04-21T22:59:20.536Z,4.37
2019-04-21T23:01:50.435Z,4.10
2019-04-21T23:04:20.994Z,4.17
2019-04-21T23:06:56.577Z,4.23
2019-04-21T23:09:24.739Z,4.30
2019-04-21T23:11:56.610Z,4.43
2019-04-21T23:14:28.106Z,3.97
2019-04-21T23:17:22.947Z,4.17
2019-04-21T23:19:44.808Z,4.23
2019-04-21T23:22:23.208Z,3.77
2019-04-21T23:24:59.063Z,4.00
2019-04-21T23:27:21.724Z,4.00
2019-04-21T23:30:07.779Z,3.73
2019-04-21T23:32:27.527Z,3.93
2019-04-21T23:34:47.260Z,4.07
2019-04-21T23:37:23.366Z,3.90
2019-04-21T23:39:54.674Z,3.83
2019-04-21T23:42:31.132Z,3.60
2019-04-21T23:44:58.136Z,3.63
2019-04-21T23:47:41.570Z,3.43
2019-04-21T23:50:15.835Z,3.47
2019-04-21T23:52:33.146Z,3.37
2019-04-21T23:55:06.169Z,3.43
2019-04-21T23:57:43.088Z,3.43
